sensor_id;sensor_type;location;lat;lon;timestamp;P1;durP1;ratioP1;P2;durP2;ratioP2
22078;SDS011;11206;57.696;11.944;2022-09-01T00:01:42;0.93;;;0.52;;
22078;SDS011;11206;57.696;11.944;2022-09-01T00:04:10;1.30;;;0.40;;
22078;SDS011;11206;57.696;11.944;2022-09-01T00:06:37;1.35;;;0.50;;
22078;SDS011;11206;57.696;11.944;2022-09-01T00:09:06;0.70;;;0.40;;
22078;SDS011;11206;57.696;11.944;2022-09-01T00:11:32;0.98;;;0.40;;
22078;SDS011;11206;57.696;11.944;2022-09-01T00:14:00;2.95;;;0.32;;
22078;SDS011;11206;57.696;11.944;2022-09-01T00:16:27;1.38;;;0.43;;
22078;SDS011;11206;57.696;11.944;2022-09-01T00:18:54;0.35;;;0.28;;
22078;SDS011;11206;57.696;11.944;2022-09-01T00:21:22;4.18;;;0.45;;
22078;SDS011;11206;57.696;11.944;2022-09-01T00:23:49;2.95;;;0.40;;
22078;SDS011;11206;57.696;11.944;2022-09-01T00:26:15;1.63;;;0.45;;
22078;SDS011;11206;57.696;11.944;2022-09-01T00:28:41;2.67;;;0.43;;
22078;SDS011;11206;57.696;11.944;2022-09-01T00:31:08;1.92;;;0.50;;
22078;SDS011;11206;57.696;11.944;2022-09-01T00:33:35;1.58;;;0.55;;
22078;SDS011;11206;57.696;11.944;2022-09-01T00:36:02;1.02;;;0.32;;
22078;SDS011;11206;57.696;11.944;2022-09-01T00:38:29;2.85;;;0.50;;
22078;SDS011;11206;57.696;11.944;2022-09-01T00:40:55;2.10;;;0.40;;
22078;SDS011;11206;57.696;11.944;2022-09-01T00:43:23;3.55;;;0.50;;
22078;SDS011;11206;57.696;11.944;2022-09-01T00:46:07;1.02;;;0.52;;
22078;SDS011;11206;57.696;11.944;2022-09-01T00:48:33;1.15;;;0.43;;
22078;SDS011;11206;57.696;11.944;2022-09-01T00:50:59;0.30;;;0.30;;
22078;SDS011;11206;57.696;11.944;2022-09-01T00:53:26;1.33;;;0.43;;
22078;SDS011;11206;57.696;11.944;2022-09-01T00:55:52;0.38;;;0.30;;
22078;SDS011;11206;57.696;11.944;2022-09-01T00:58:18;4.57;;;0.55;;
22078;SDS011;11206;57.696;11.944;2022-09-01T01:00:45;0.22;;;0.20;;
22078;SDS011;11206;57.696;11.944;2022-09-01T01:03:12;1.42;;;0.60;;
22078;SDS011;11206;57.696;11.944;2022-09-01T01:05:42;1.50;;;0.30;;
22078;SDS011;11206;57.696;11.944;2022-09-01T01:08:19;0.95;;;0.45;;
22078;SDS011;11206;57.696;11.944;2022-09-01T01:10:53;2.92;;;0.50;;
22078;SDS011;11206;57.696;11.944;2022-09-01T01:13:19;1.90;;;0.50;;
22078;SDS011;11206;57.696;11.944;2022-09-01T01:15:48;3.75;;;0.55;;
22078;SDS011;11206;57.696;11.944;2022-09-01T01:18:14;3.03;;;0.70;;
22078;SDS011;11206;57.696;11.944;2022-09-01T01:20:41;7.35;;;0.75;;
22078;SDS011;11206;57.696;11.944;2022-09-01T01:25:56;3.38;;;0.77;;
22078;SDS011;11206;57.696;11.944;2022-09-01T01:28:24;1.95;;;0.57;;
22078;SDS011;11206;57.696;11.944;2022-09-01T01:30:55;2.60;;;0.77;;
22078;SDS011;11206;57.696;11.944;2022-09-01T01:33:33;2.08;;;0.68;;
22078;SDS011;11206;57.696;11.944;2022-09-01T01:36:03;2.65;;;0.90;;
22078;SDS011;11206;57.696;11.944;2022-09-01T01:38:31;1.55;;;0.57;;
22078;SDS011;11206;57.696;11.944;2022-09-01T01:40:59;3.53;;;0.88;;
22078;SDS011;11206;57.696;11.944;2022-09-01T01:43:26;2.35;;;0.80;;
22078;SDS011;11206;57.696;11.944;2022-09-01T01:45:53;4.80;;;1.17;;
22078;SDS011;11206;57.696;11.944;2022-09-01T01:48:23;2.08;;;1.00;;
22078;SDS011;11206;57.696;11.944;2022-09-01T01:50:50;6.13;;;1.20;;
22078;SDS011;11206;57.696;11.944;2022-09-01T01:53:16;7.35;;;1.20;;
22078;SDS011;11206;57.696;11.944;2022-09-01T01:55:43;3.20;;;0.90;;
22078;SDS011;11206;57.696;11.944;2022-09-01T01:58:09;5.50;;;1.10;;
22078;SDS011;11206;57.696;11.944;2022-09-01T02:00:39;2.83;;;0.70;;
22078;SDS011;11206;57.696;11.944;2022-09-01T02:03:08;3.80;;;1.00;;
22078;SDS011;11206;57.696;11.944;2022-09-01T02:05:37;1.77;;;0.52;;
22078;SDS011;11206;57.696;11.944;2022-09-01T02:08:05;3.40;;;0.82;;
22078;SDS011;11206;57.696;11.944;2022-09-01T02:10:32;1.52;;;0.47;;
22078;SDS011;11206;57.696;11.944;2022-09-01T02:12:59;5.70;;;0.85;;
22078;SDS011;11206;57.696;11.944;2022-09-01T02:15:30;3.00;;;0.60;;
22078;SDS011;11206;57.696;11.944;2022-09-01T02:18:06;1.00;;;0.68;;
22078;SDS011;11206;57.696;11.944;2022-09-01T02:20:32;5.53;;;0.57;;
22078;SDS011;11206;57.696;11.944;2022-09-01T02:22:58;2.72;;;0.80;;
22078;SDS011;11206;57.696;11.944;2022-09-01T02:25:33;3.45;;;0.88;;
22078;SDS011;11206;57.696;11.944;2022-09-01T02:28:00;1.98;;;0.77;;
22078;SDS011;11206;57.696;11.944;2022-09-01T02:30:28;1.55;;;0.63;;
22078;SDS011;11206;57.696;11.944;2022-09-01T02:32:56;1.38;;;0.60;;
22078;SDS011;11206;57.696;11.944;2022-09-01T02:35:23;1.95;;;0.60;;
22078;SDS011;11206;57.696;11.944;2022-09-01T02:37:53;1.55;;;0.60;;
22078;SDS011;11206;57.696;11.944;2022-09-01T02:40:22;1.77;;;0.70;;
22078;SDS011;11206;57.696;11.944;2022-09-01T02:42:48;9.90;;;0.98;;
22078;SDS011;11206;57.696;11.944;2022-09-01T02:45:17;1.67;;;0.57;;
22078;SDS011;11206;57.696;11.944;2022-09-01T02:47:43;4.32;;;0.70;;
22078;SDS011;11206;57.696;11.944;2022-09-01T02:50:12;2.33;;;0.68;;
22078;SDS011;11206;57.696;11.944;2022-09-01T02:52:41;1.67;;;0.57;;
22078;SDS011;11206;57.696;11.944;2022-09-01T02:55:07;2.65;;;0.50;;
22078;SDS011;11206;57.696;11.944;2022-09-01T02:57:34;1.92;;;0.77;;
22078;SDS011;11206;57.696;11.944;2022-09-01T03:00:00;7.10;;;0.77;;
22078;SDS011;11206;57.696;11.944;2022-09-01T03:02:26;0.98;;;0.60;;
22078;SDS011;11206;57.696;11.944;2022-09-01T03:05:12;1.02;;;0.57;;
22078;SDS011;11206;57.696;11.944;2022-09-01T03:07:40;1.45;;;0.57;;
22078;SDS011;11206;57.696;11.944;2022-09-01T03:10:07;1.27;;;0.55;;
22078;SDS011;11206;57.696;11.944;2022-09-01T03:12:34;1.55;;;0.50;;
22078;SDS011;11206;57.696;11.944;2022-09-01T03:15:00;1.25;;;0.70;;
22078;SDS011;11206;57.696;11.944;2022-09-01T03:17:26;1.95;;;0.50;;
22078;SDS011;11206;57.696;11.944;2022-09-01T03:19:52;2.72;;;0.45;;
22078;SDS011;11206;57.696;11.944;2022-09-01T03:22:18;1.58;;;0.60;;
22078;SDS011;11206;57.696;11.944;2022-09-01T03:24:46;2.35;;;0.55;;
22078;SDS011;11206;57.696;11.944;2022-09-01T03:27:14;3.92;;;0.65;;
22078;SDS011;11206;57.696;11.944;2022-09-01T03:29:46;2.30;;;0.70;;
22078;SDS011;11206;57.696;11.944;2022-09-01T03:32:15;1.08;;;0.50;;
22078;SDS011;11206;57.696;11.944;2022-09-01T03:34:42;6.28;;;0.73;;
22078;SDS011;11206;57.696;11.944;2022-09-01T03:37:08;1.13;;;0.50;;
22078;SDS011;11206;57.696;11.944;2022-09-01T03:39:36;1.65;;;0.63;;
22078;SDS011;11206;57.696;11.944;2022-09-01T03:42:03;1.33;;;0.52;;
22078;SDS011;11206;57.696;11.944;2022-09-01T03:44:34;0.43;;;0.10;;
22078;SDS011;11206;57.696;11.944;2022-09-01T03:47:04;1.63;;;0.75;;
22078;SDS011;11206;57.696;11.944;2022-09-01T03:49:35;0.90;;;0.50;;
22078;SDS011;11206;57.696;11.944;2022-09-01T03:52:03;3.72;;;0.60;;
22078;SDS011;11206;57.696;11.944;2022-09-01T03:54:35;2.63;;;0.52;;
22078;SDS011;11206;57.696;11.944;2022-09-01T03:57:02;2.45;;;0.52;;
22078;SDS011;11206;57.696;11.944;2022-09-01T03:59:31;0.70;;;0.40;;
22078;SDS011;11206;57.696;11.944;2022-09-01T04:01:58;5.75;;;0.50;;
22078;SDS011;11206;57.696;11.944;2022-09-01T04:04:26;0.88;;;0.50;;
22078;SDS011;11206;57.696;11.944;2022-09-01T04:06:55;1.52;;;0.40;;
22078;SDS011;11206;57.696;11.944;2022-09-01T04:09:22;1.80;;;0.52;;
22078;SDS011;11206;57.696;11.944;2022-09-01T04:11:48;0.80;;;0.45;;
22078;SDS011;11206;57.696;11.944;2022-09-01T04:14:15;4.13;;;0.40;;
22078;SDS011;11206;57.696;11.944;2022-09-01T04:16:42;5.13;;;0.73;;
22078;SDS011;11206;57.696;11.944;2022-09-01T04:19:33;0.73;;;0.40;;
22078;SDS011;11206;57.696;11.944;2022-09-01T04:22:02;1.02;;;0.40;;
22078;SDS011;11206;57.696;11.944;2022-09-01T04:24:31;1.70;;;0.25;;
22078;SDS011;11206;57.696;11.944;2022-09-01T04:26:58;2.33;;;0.50;;
22078;SDS011;11206;57.696;11.944;2022-09-01T04:29:26;4.22;;;0.70;;
22078;SDS011;11206;57.696;11.944;2022-09-01T04:31:53;1.77;;;0.40;;
22078;SDS011;11206;57.696;11.944;2022-09-01T04:34:20;2.97;;;0.70;;
22078;SDS011;11206;57.696;11.944;2022-09-01T04:36:52;1.23;;;0.30;;
22078;SDS011;11206;57.696;11.944;2022-09-01T04:39:19;18.08;;;0.70;;
22078;SDS011;11206;57.696;11.944;2022-09-01T04:41:46;5.07;;;0.50;;
22078;SDS011;11206;57.696;11.944;2022-09-01T04:44:13;0.45;;;0.38;;
22078;SDS011;11206;57.696;11.944;2022-09-01T04:46:43;2.15;;;0.47;;
22078;SDS011;11206;57.696;11.944;2022-09-01T04:49:14;2.13;;;0.43;;
22078;SDS011;11206;57.696;11.944;2022-09-01T04:51:45;5.00;;;0.77;;
22078;SDS011;11206;57.696;11.944;2022-09-01T04:54:11;1.30;;;0.57;;
22078;SDS011;11206;57.696;11.944;2022-09-01T04:56:39;0.90;;;0.30;;
22078;SDS011;11206;57.696;11.944;2022-09-01T04:59:06;0.75;;;0.50;;
22078;SDS011;11206;57.696;11.944;2022-09-01T05:01:33;1.13;;;0.40;;
22078;SDS011;11206;57.696;11.944;2022-09-01T05:04:19;3.53;;;0.63;;
22078;SDS011;11206;57.696;11.944;2022-09-01T05:06:50;4.97;;;0.45;;
22078;SDS011;11206;57.696;11.944;2022-09-01T05:09:19;2.33;;;0.88;;
22078;SDS011;11206;57.696;11.944;2022-09-01T05:11:46;8.55;;;0.90;;
22078;SDS011;11206;57.696;11.944;2022-09-01T05:14:12;2.58;;;0.63;;
22078;SDS011;11206;57.696;11.944;2022-09-01T05:16:42;2.90;;;0.68;;
22078;SDS011;11206;57.696;11.944;2022-09-01T05:19:09;2.53;;;0.45;;
22078;SDS011;11206;57.696;11.944;2022-09-01T05:21:39;3.90;;;0.50;;
22078;SDS011;11206;57.696;11.944;2022-09-01T05:24:08;3.15;;;0.65;;
22078;SDS011;11206;57.696;11.944;2022-09-01T05:26:34;6.53;;;1.17;;
22078;SDS011;11206;57.696;11.944;2022-09-01T05:29:05;6.28;;;0.90;;
22078;SDS011;11206;57.696;11.944;2022-09-01T05:31:41;3.78;;;1.00;;
22078;SDS011;11206;57.696;11.944;2022-09-01T05:34:09;2.40;;;0.98;;
22078;SDS011;11206;57.696;11.944;2022-09-01T05:36:37;8.18;;;1.20;;
22078;SDS011;11206;57.696;11.944;2022-09-01T05:39:04;1.67;;;0.60;;
22078;SDS011;11206;57.696;11.944;2022-09-01T05:41:30;4.93;;;0.88;;
22078;SDS011;11206;57.696;11.944;2022-09-01T05:44:00;7.75;;;0.77;;
22078;SDS011;11206;57.696;11.944;2022-09-01T05:46:26;3.50;;;1.00;;
22078;SDS011;11206;57.696;11.944;2022-09-01T05:48:54;2.22;;;1.00;;
22078;SDS011;11206;57.696;11.944;2022-09-01T05:51:21;14.30;;;1.15;;
22078;SDS011;11206;57.696;11.944;2022-09-01T05:53:50;6.85;;;0.98;;
22078;SDS011;11206;57.696;11.944;2022-09-01T05:56:19;3.38;;;1.45;;
22078;SDS011;11206;57.696;11.944;2022-09-01T05:58:46;7.28;;;1.15;;
22078;SDS011;11206;57.696;11.944;2022-09-01T06:01:16;2.92;;;0.80;;
22078;SDS011;11206;57.696;11.944;2022-09-01T06:03:49;3.72;;;0.57;;
22078;SDS011;11206;57.696;11.944;2022-09-01T06:06:29;1.98;;;0.85;;
22078;SDS011;11206;57.696;11.944;2022-09-01T06:08:56;16.40;;;1.30;;
22078;SDS011;11206;57.696;11.944;2022-09-01T06:11:24;9.90;;;1.10;;
22078;SDS011;11206;57.696;11.944;2022-09-01T06:13:50;8.75;;;1.02;;
22078;SDS011;11206;57.696;11.944;2022-09-01T06:16:17;7.22;;;1.25;;
22078;SDS011;11206;57.696;11.944;2022-09-01T06:18:44;9.07;;;1.35;;
22078;SDS011;11206;57.696;11.944;2022-09-01T06:21:11;7.90;;;1.10;;
22078;SDS011;11206;57.696;11.944;2022-09-01T06:23:41;4.13;;;1.08;;
22078;SDS011;11206;57.696;11.944;2022-09-01T06:26:21;5.68;;;1.05;;
22078;SDS011;11206;57.696;11.944;2022-09-01T06:28:51;6.10;;;1.15;;
22078;SDS011;11206;57.696;11.944;2022-09-01T06:31:19;3.20;;;0.70;;
22078;SDS011;11206;57.696;11.944;2022-09-01T06:33:48;8.07;;;1.00;;
22078;SDS011;11206;57.696;11.944;2022-09-01T06:36:15;13.93;;;1.08;;
22078;SDS011;11206;57.696;11.944;2022-09-01T06:38:42;2.28;;;1.00;;
22078;SDS011;11206;57.696;11.944;2022-09-01T06:41:08;4.50;;;0.80;;
22078;SDS011;11206;57.696;11.944;2022-09-01T06:43:37;4.43;;;1.23;;
22078;SDS011;11206;57.696;11.944;2022-09-01T06:46:06;3.10;;;1.23;;
22078;SDS011;11206;57.696;11.944;2022-09-01T06:48:34;7.00;;;1.10;;
22078;SDS011;11206;57.696;11.944;2022-09-01T06:51:00;2.78;;;0.85;;
22078;SDS011;11206;57.696;11.944;2022-09-01T06:53:28;3.97;;;0.80;;
22078;SDS011;11206;57.696;11.944;2022-09-01T06:55:56;3.22;;;0.75;;
22078;SDS011;11206;57.696;11.944;2022-09-01T06:58:23;13.07;;;0.77;;
22078;SDS011;11206;57.696;11.944;2022-09-01T07:00:49;1.75;;;0.68;;
22078;SDS011;11206;57.696;11.944;2022-09-01T07:03:15;1.77;;;1.10;;
22078;SDS011;11206;57.696;11.944;2022-09-01T07:05:43;1.33;;;0.60;;
22078;SDS011;11206;57.696;11.944;2022-09-01T07:08:10;1.38;;;0.65;;
22078;SDS011;11206;57.696;11.944;2022-09-01T07:10:41;11.23;;;0.88;;
22078;SDS011;11206;57.696;11.944;2022-09-01T07:13:09;1.48;;;0.40;;
22078;SDS011;11206;57.696;11.944;2022-09-01T07:15:39;0.68;;;0.43;;
22078;SDS011;11206;57.696;11.944;2022-09-01T07:18:05;5.60;;;0.90;;
22078;SDS011;11206;57.696;11.944;2022-09-01T07:20:31;2.17;;;0.60;;
22078;SDS011;11206;57.696;11.944;2022-09-01T07:23:02;1.85;;;0.68;;
22078;SDS011;11206;57.696;11.944;2022-09-01T07:25:28;2.08;;;0.55;;
22078;SDS011;11206;57.696;11.944;2022-09-01T07:28:01;1.63;;;0.60;;
22078;SDS011;11206;57.696;11.944;2022-09-01T07:30:28;2.58;;;0.30;;
22078;SDS011;11206;57.696;11.944;2022-09-01T07:32:55;1.17;;;0.35;;
22078;SDS011;11206;57.696;11.944;2022-09-01T07:35:22;1.33;;;0.22;;
22078;SDS011;11206;57.696;11.944;2022-09-01T07:37:51;0.85;;;0.38;;
22078;SDS011;11206;57.696;11.944;2022-09-01T07:40:18;1.38;;;0.80;;
22078;SDS011;11206;57.696;11.944;2022-09-01T07:42:46;0.30;;;0.30;;
22078;SDS011;11206;57.696;11.944;2022-09-01T07:45:13;3.08;;;0.40;;
22078;SDS011;11206;57.696;11.944;2022-09-01T07:47:41;0.73;;;0.25;;
22078;SDS011;11206;57.696;11.944;2022-09-01T07:50:09;4.00;;;0.38;;
22078;SDS011;11206;57.696;11.944;2022-09-01T07:52:37;0.98;;;0.40;;
22078;SDS011;11206;57.696;11.944;2022-09-01T07:55:11;1.65;;;0.28;;
22078;SDS011;11206;57.696;11.944;2022-09-01T07:57:38;1.13;;;0.28;;
22078;SDS011;11206;57.696;11.944;2022-09-01T08:00:06;0.80;;;0.30;;
22078;SDS011;11206;57.696;11.944;2022-09-01T08:02:33;1.92;;;0.30;;
22078;SDS011;11206;57.696;11.944;2022-09-01T08:05:10;0.40;;;0.20;;
22078;SDS011;11206;57.696;11.944;2022-09-01T08:08:11;0.40;;;0.20;;
22078;SDS011;11206;57.696;11.944;2022-09-01T08:10:38;2.28;;;0.30;;
22078;SDS011;11206;57.696;11.944;2022-09-01T08:13:05;2.60;;;0.30;;
22078;SDS011;11206;57.696;11.944;2022-09-01T08:15:31;2.47;;;0.32;;
22078;SDS011;11206;57.696;11.944;2022-09-01T08:17:57;1.80;;;0.30;;
22078;SDS011;11206;57.696;11.944;2022-09-01T08:20:23;2.28;;;0.68;;
22078;SDS011;11206;57.696;11.944;2022-09-01T08:22:49;1.23;;;0.50;;
22078;SDS011;11206;57.696;11.944;2022-09-01T08:25:16;2.15;;;0.20;;
22078;SDS011;11206;57.696;11.944;2022-09-01T08:28:05;1.55;;;0.52;;
22078;SDS011;11206;57.696;11.944;2022-09-01T08:33:24;0.57;;;0.28;;
22078;SDS011;11206;57.696;11.944;2022-09-01T08:35:51;1.83;;;0.13;;
22078;SDS011;11206;57.696;11.944;2022-09-01T08:38:22;2.50;;;0.73;;
22078;SDS011;11206;57.696;11.944;2022-09-01T08:41:23;4.47;;;0.38;;
22078;SDS011;11206;57.696;11.944;2022-09-01T08:46:40;2.00;;;0.20;;
22078;SDS011;11206;57.696;11.944;2022-09-01T08:49:40;1.00;;;0.20;;
22078;SDS011;11206;57.696;11.944;2022-09-01T08:55:18;0.73;;;0.15;;
22078;SDS011;11206;57.696;11.944;2022-09-01T08:57:49;0.70;;;0.38;;
22078;SDS011;11206;57.696;11.944;2022-09-01T09:00:20;0.57;;;0.30;;
22078;SDS011;11206;57.696;11.944;2022-09-01T09:05:48;0.50;;;0.20;;
22078;SDS011;11206;57.696;11.944;2022-09-01T09:14:13;0.82;;;0.38;;
22078;SDS011;11206;57.696;11.944;2022-09-01T09:16:40;0.30;;;0.10;;
22078;SDS011;11206;57.696;11.944;2022-09-01T09:19:14;3.05;;;0.30;;
22078;SDS011;11206;57.696;11.944;2022-09-01T09:21:51;1.55;;;0.15;;
22078;SDS011;11206;57.696;11.944;2022-09-01T09:27:27;0.65;;;0.40;;
22078;SDS011;11206;57.696;11.944;2022-09-01T09:29:54;0.77;;;0.20;;
22078;SDS011;11206;57.696;11.944;2022-09-01T09:32:22;0.45;;;0.20;;
22078;SDS011;11206;57.696;11.944;2022-09-01T09:34:49;1.00;;;0.20;;
22078;SDS011;11206;57.696;11.944;2022-09-01T09:39:41;0.43;;;0.10;;
22078;SDS011;11206;57.696;11.944;2022-09-01T09:42:32;2.08;;;0.30;;
22078;SDS011;11206;57.696;11.944;2022-09-01T09:45:23;0.70;;;0.30;;
22078;SDS011;11206;57.696;11.944;2022-09-01T09:47:50;0.10;;;0.10;;
22078;SDS011;11206;57.696;11.944;2022-09-01T09:50:27;0.40;;;0.10;;
22078;SDS011;11206;57.696;11.944;2022-09-01T09:58:39;7.85;;;0.35;;
22078;SDS011;11206;57.696;11.944;2022-09-01T10:01:14;3.08;;;0.40;;
22078;SDS011;11206;57.696;11.944;2022-09-01T10:03:53;0.85;;;0.20;;
22078;SDS011;11206;57.696;11.944;2022-09-01T10:08:56;2.40;;;0.10;;
22078;SDS011;11206;57.696;11.944;2022-09-01T10:13:52;1.38;;;0.30;;
22078;SDS011;11206;57.696;11.944;2022-09-01T10:16:22;2.95;;;0.30;;
22078;SDS011;11206;57.696;11.944;2022-09-01T10:18:49;3.03;;;0.80;;
22078;SDS011;11206;57.696;11.944;2022-09-01T10:21:37;2.10;;;0.47;;
22078;SDS011;11206;57.696;11.944;2022-09-01T10:24:07;0.50;;;0.20;;
22078;SDS011;11206;57.696;11.944;2022-09-01T10:26:34;0.08;;;0.08;;
22078;SDS011;11206;57.696;11.944;2022-09-01T10:29:07;2.10;;;0.47;;
22078;SDS011;11206;57.696;11.944;2022-09-01T10:31:34;1.63;;;0.60;;
22078;SDS011;11206;57.696;11.944;2022-09-01T10:34:03;0.55;;;0.20;;
22078;SDS011;11206;57.696;11.944;2022-09-01T10:36:29;1.65;;;0.47;;
22078;SDS011;11206;57.696;11.944;2022-09-01T10:38:56;0.50;;;0.20;;
22078;SDS011;11206;57.696;11.944;2022-09-01T10:44:34;2.25;;;0.40;;
22078;SDS011;11206;57.696;11.944;2022-09-01T10:47:02;2.22;;;0.40;;
22078;SDS011;11206;57.696;11.944;2022-09-01T10:51:58;4.43;;;0.57;;
22078;SDS011;11206;57.696;11.944;2022-09-01T11:08:21;1.92;;;0.22;;
22078;SDS011;11206;57.696;11.944;2022-09-01T11:13:32;0.35;;;0.22;;
22078;SDS011;11206;57.696;11.944;2022-09-01T11:18:45;0.35;;;0.20;;
22078;SDS011;11206;57.696;11.944;2022-09-01T11:21:18;2.72;;;0.95;;
22078;SDS011;11206;57.696;11.944;2022-09-01T11:23:48;1.40;;;0.22;;
22078;SDS011;11206;57.696;11.944;2022-09-01T11:28:59;0.63;;;0.30;;
22078;SDS011;11206;57.696;11.944;2022-09-01T11:31:28;0.10;;;0.10;;
22078;SDS011;11206;57.696;11.944;2022-09-01T11:34:14;0.32;;;0.10;;
22078;SDS011;11206;57.696;11.944;2022-09-01T11:47:02;0.88;;;0.17;;
22078;SDS011;11206;57.696;11.944;2022-09-01T11:49:36;1.83;;;0.20;;
22078;SDS011;11206;57.696;11.944;2022-09-01T11:52:04;1.08;;;0.22;;
22078;SDS011;11206;57.696;11.944;2022-09-01T11:54:40;3.05;;;0.20;;
22078;SDS011;11206;57.696;11.944;2022-09-01T11:59:52;1.95;;;0.22;;
22078;SDS011;11206;57.696;11.944;2022-09-01T12:02:30;0.88;;;0.20;;
22078;SDS011;11206;57.696;11.944;2022-09-01T12:04:58;2.00;;;0.10;;
22078;SDS011;11206;57.696;11.944;2022-09-01T12:09:56;2.20;;;0.20;;
22078;SDS011;11206;57.696;11.944;2022-09-01T12:12:30;1.45;;;0.20;;
22078;SDS011;11206;57.696;11.944;2022-09-01T12:15:17;0.15;;;0.00;;
22078;SDS011;11206;57.696;11.944;2022-09-01T12:17:44;0.40;;;0.13;;
22078;SDS011;11206;57.696;11.944;2022-09-01T12:20:24;0.63;;;0.28;;
22078;SDS011;11206;57.696;11.944;2022-09-01T12:22:51;3.65;;;0.30;;
22078;SDS011;11206;57.696;11.944;2022-09-01T12:25:27;0.82;;;0.10;;
22078;SDS011;11206;57.696;11.944;2022-09-01T12:27:54;1.02;;;0.30;;
22078;SDS011;11206;57.696;11.944;2022-09-01T12:30:21;1.42;;;0.32;;
22078;SDS011;11206;57.696;11.944;2022-09-01T12:32:47;0.10;;;0.10;;
22078;SDS011;11206;57.696;11.944;2022-09-01T12:35:20;0.65;;;0.20;;
22078;SDS011;11206;57.696;11.944;2022-09-01T12:37:47;2.25;;;0.45;;
22078;SDS011;11206;57.696;11.944;2022-09-01T12:40:21;0.88;;;0.20;;
22078;SDS011;11206;57.696;11.944;2022-09-01T12:42:49;0.15;;;0.10;;
22078;SDS011;11206;57.696;11.944;2022-09-01T12:45:34;1.40;;;0.20;;
22078;SDS011;11206;57.696;11.944;2022-09-01T12:48:00;4.40;;;0.22;;
22078;SDS011;11206;57.696;11.944;2022-09-01T12:52:53;0.50;;;0.20;;
22078;SDS011;11206;57.696;11.944;2022-09-01T12:55:22;1.00;;;0.50;;
22078;SDS011;11206;57.696;11.944;2022-09-01T12:57:49;2.10;;;0.10;;
22078;SDS011;11206;57.696;11.944;2022-09-01T13:00:17;3.95;;;0.30;;
22078;SDS011;11206;57.696;11.944;2022-09-01T13:02:45;0.03;;;0.00;;
22078;SDS011;11206;57.696;11.944;2022-09-01T13:08:13;0.52;;;0.32;;
22078;SDS011;11206;57.696;11.944;2022-09-01T13:10:42;5.47;;;0.38;;
22078;SDS011;11206;57.696;11.944;2022-09-01T13:13:09;1.50;;;0.30;;
22078;SDS011;11206;57.696;11.944;2022-09-01T13:15:37;2.05;;;0.25;;
22078;SDS011;11206;57.696;11.944;2022-09-01T13:18:04;4.72;;;0.22;;
22078;SDS011;11206;57.696;11.944;2022-09-01T13:20:30;1.27;;;0.10;;
22078;SDS011;11206;57.696;11.944;2022-09-01T13:22:56;0.55;;;0.28;;
22078;SDS011;11206;57.696;11.944;2022-09-01T13:25:23;1.70;;;0.47;;
22078;SDS011;11206;57.696;11.944;2022-09-01T13:27:50;2.22;;;0.50;;
22078;SDS011;11206;57.696;11.944;2022-09-01T13:30:21;0.30;;;0.10;;
22078;SDS011;11206;57.696;11.944;2022-09-01T13:32:48;2.80;;;0.17;;
22078;SDS011;11206;57.696;11.944;2022-09-01T13:35:16;10.15;;;0.38;;
22078;SDS011;11206;57.696;11.944;2022-09-01T13:37:43;1.92;;;0.55;;
22078;SDS011;11206;57.696;11.944;2022-09-01T13:40:10;0.98;;;0.38;;
22078;SDS011;11206;57.696;11.944;2022-09-01T13:42:40;5.03;;;0.60;;
22078;SDS011;11206;57.696;11.944;2022-09-01T13:45:06;0.28;;;0.20;;
22078;SDS011;11206;57.696;11.944;2022-09-01T13:47:32;2.17;;;0.20;;
22078;SDS011;11206;57.696;11.944;2022-09-01T13:49:59;3.60;;;0.30;;
22078;SDS011;11206;57.696;11.944;2022-09-01T13:52:25;2.15;;;0.50;;
22078;SDS011;11206;57.696;11.944;2022-09-01T13:54:51;8.35;;;0.57;;
22078;SDS011;11206;57.696;11.944;2022-09-01T13:57:17;1.33;;;0.50;;
22078;SDS011;11206;57.696;11.944;2022-09-01T13:59:43;0.65;;;0.13;;
22078;SDS011;11206;57.696;11.944;2022-09-01T14:02:09;4.18;;;0.40;;
22078;SDS011;11206;57.696;11.944;2022-09-01T14:04:35;2.05;;;0.30;;
22078;SDS011;11206;57.696;11.944;2022-09-01T14:07:01;0.30;;;0.10;;
22078;SDS011;11206;57.696;11.944;2022-09-01T14:09:28;0.38;;;0.20;;
22078;SDS011;11206;57.696;11.944;2022-09-01T14:11:55;0.82;;;0.20;;
22078;SDS011;11206;57.696;11.944;2022-09-01T14:14:21;0.38;;;0.17;;
22078;SDS011;11206;57.696;11.944;2022-09-01T14:16:47;0.65;;;0.32;;
22078;SDS011;11206;57.696;11.944;2022-09-01T14:19:14;9.60;;;0.85;;
22078;SDS011;11206;57.696;11.944;2022-09-01T14:21:40;0.88;;;0.20;;
22078;SDS011;11206;57.696;11.944;2022-09-01T14:24:06;4.95;;;0.30;;
22078;SDS011;11206;57.696;11.944;2022-09-01T14:26:32;0.85;;;0.20;;
22078;SDS011;11206;57.696;11.944;2022-09-01T14:28:59;0.32;;;0.17;;
22078;SDS011;11206;57.696;11.944;2022-09-01T14:31:26;1.10;;;0.40;;
22078;SDS011;11206;57.696;11.944;2022-09-01T14:33:56;0.63;;;0.30;;
22078;SDS011;11206;57.696;11.944;2022-09-01T14:36:23;2.35;;;0.10;;
22078;SDS011;11206;57.696;11.944;2022-09-01T14:38:49;0.20;;;0.10;;
22078;SDS011;11206;57.696;11.944;2022-09-01T14:41:16;1.20;;;0.30;;
22078;SDS011;11206;57.696;11.944;2022-09-01T14:43:48;0.52;;;0.20;;
22078;SDS011;11206;57.696;11.944;2022-09-01T14:46:14;1.33;;;0.20;;
22078;SDS011;11206;57.696;11.944;2022-09-01T14:48:41;2.83;;;0.13;;
22078;SDS011;11206;57.696;11.944;2022-09-01T14:51:07;3.70;;;0.20;;
22078;SDS011;11206;57.696;11.944;2022-09-01T14:53:34;0.75;;;0.20;;
22078;SDS011;11206;57.696;11.944;2022-09-01T14:56:00;0.28;;;0.13;;
22078;SDS011;11206;57.696;11.944;2022-09-01T14:58:27;0.73;;;0.20;;
22078;SDS011;11206;57.696;11.944;2022-09-01T15:00:54;0.55;;;0.20;;
22078;SDS011;11206;57.696;11.944;2022-09-01T15:03:21;5.65;;;0.20;;
22078;SDS011;11206;57.696;11.944;2022-09-01T15:05:48;1.15;;;0.20;;
22078;SDS011;11206;57.696;11.944;2022-09-01T15:08:15;0.10;;;0.00;;
22078;SDS011;11206;57.696;11.944;2022-09-01T15:10:41;0.55;;;0.20;;
22078;SDS011;11206;57.696;11.944;2022-09-01T15:13:07;1.13;;;0.22;;
22078;SDS011;11206;57.696;11.944;2022-09-01T15:15:34;4.10;;;0.10;;
22078;SDS011;11206;57.696;11.944;2022-09-01T15:18:00;2.78;;;0.13;;
22078;SDS011;11206;57.696;11.944;2022-09-01T15:20:27;1.80;;;0.15;;
22078;SDS011;11206;57.696;11.944;2022-09-01T15:23:16;0.30;;;0.10;;
22078;SDS011;11206;57.696;11.944;2022-09-01T15:25:43;0.63;;;0.20;;
22078;SDS011;11206;57.696;11.944;2022-09-01T15:28:09;1.98;;;0.20;;
22078;SDS011;11206;57.696;11.944;2022-09-01T15:30:35;0.30;;;0.10;;
22078;SDS011;11206;57.696;11.944;2022-09-01T15:33:02;0.63;;;0.20;;
22078;SDS011;11206;57.696;11.944;2022-09-01T15:35:29;1.80;;;0.50;;
22078;SDS011;11206;57.696;11.944;2022-09-01T15:37:55;4.70;;;0.40;;
22078;SDS011;11206;57.696;11.944;2022-09-01T15:40:22;0.47;;;0.00;;
22078;SDS011;11206;57.696;11.944;2022-09-01T15:42:48;0.47;;;0.13;;
22078;SDS011;11206;57.696;11.944;2022-09-01T15:45:17;0.68;;;0.30;;
22078;SDS011;11206;57.696;11.944;2022-09-01T15:47:43;0.20;;;0.10;;
22078;SDS011;11206;57.696;11.944;2022-09-01T15:50:12;0.25;;;0.20;;
22078;SDS011;11206;57.696;11.944;2022-09-01T15:52:46;0.43;;;0.20;;
22078;SDS011;11206;57.696;11.944;2022-09-01T15:55:14;2.80;;;0.20;;
22078;SDS011;11206;57.696;11.944;2022-09-01T15:57:40;0.70;;;0.40;;
22078;SDS011;11206;57.696;11.944;2022-09-01T16:00:06;0.88;;;0.28;;
22078;SDS011;11206;57.696;11.944;2022-09-01T16:02:33;0.93;;;0.22;;
22078;SDS011;11206;57.696;11.944;2022-09-01T16:04:59;0.30;;;0.10;;
22078;SDS011;11206;57.696;11.944;2022-09-01T16:07:25;0.17;;;0.10;;
22078;SDS011;11206;57.696;11.944;2022-09-01T16:09:54;2.38;;;0.20;;